Wetterstation:     Jahr:     Auswahl:
Download: tageswerte-ehrenfels-2021.csv
 
 
Datum
Temp. 2 m
Mittel
[⁰C]
Temp. 2 m
Maximum
[⁰C]
Temp. 2 m
Minimum
[⁰C]
rel. Feuchte
Mittel
[%]
Wind
Mittel
[m/s]
Regen
Summe
[mm]
Strahlung
Summe
[Wh/m²]
Bogrebe
Minimum
[⁰C]
01.01.2021 2,6 4,0 1,6 91,3 1,2 0,0 516,4 ---
02.01.2021 1,9 3,1 0,6 86,6 1,6 0,1 466,4 ---
03.01.2021 2,0 2,6 1,3 85,4 1,7 0,0 170,1 ---
04.01.2021 1,8 2,6 0,7 90,1 0,5 0,9 136,7 ---
05.01.2021 2,4 2,9 1,8 87,6 2,0 0,4 200,8 ---
06.01.2021 2,5 3,9 1,4 88,1 1,6 1,5 338,1 ---
07.01.2021 2,1 3,4 1,5 81,8 0,8 0,3 366,6 ---
08.01.2021 2,1 4,1 1,2 85,3 1,0 0,8 733,7 ---
09.01.2021 1,5 4,9 -0,7 81,3 1,3 0,0 885,3 ---
10.01.2021 0,1 7,6 -2,5 82,1 1,4 0,0 1516,4 ---
11.01.2021 -0,4 7,4 -5,2 77,6 1,1 0,1 1696,4 ---
12.01.2021 3,4 5,8 1,9 84,5 2,1 3,7 582,7 ---
13.01.2021 2,9 6,8 0,4 78,5 1,0 0,0 1301,1 ---
14.01.2021 2,1 4,3 -0,1 76,8 1,7 0,2 552,2 ---
15.01.2021 1,2 4,5 -1,1 73,3 1,6 0,0 1376,8 ---
16.01.2021 -0,0 1,4 -2,6 71,3 0,9 0,0 451,0 ---
17.01.2021 -0,5 1,8 -2,5 93,6 0,6 2,6 357,2 ---
18.01.2021 3,9 6,6 1,9 82,1 1,6 1,2 806,0 ---
19.01.2021 4,2 6,5 2,6 78,4 2,2 0,1 407,0 ---
20.01.2021 3,6 7,0 1,0 81,3 1,6 0,0 723,0 ---
21.01.2021 9,0 12,0 3,8 73,0 2,3 4,4 835,2 ---
22.01.2021 6,1 11,4 3,6 86,5 1,6 6,7 588,5 ---
23.01.2021 3,6 5,4 1,6 88,7 1,5 2,7 330,2 ---
24.01.2021 2,0 3,9 0,0 82,8 2,2 4,8 846,4 ---
25.01.2021 1,0 3,0 0,0 89,6 1,4 2,8 674,8 ---
26.01.2021 3,0 5,4 0,5 75,7 2,6 0,0 1184,0 ---
27.01.2021 1,5 3,3 0,3 89,9 1,2 5,9 327,1 ---
28.01.2021 6,5 12,6 2,9 88,6 2,6 9,5 753,6 ---
29.01.2021 9,3 12,8 7,0 80,9 2,3 6,9 1322,3 ---
30.01.2021 4,3 8,3 0,4 89,3 1,7 7,7 300,7 ---
31.01.2021 0,9 1,5 0,4 86,8 2,3 0,7 425,8 ---
01.02.2021 3,0 5,0 1,2 95,5 1,5 3,9 444,0 ---
02.02.2021 6,5 10,2 5,0 92,9 1,0 3,0 621,7 ---
03.02.2021 9,3 14,7 7,0 91,0 1,4 19,0 501,3 ---
04.02.2021 7,9 12,2 5,0 79,5 1,2 0,6 1355,4 ---
05.02.2021 6,1 6,9 5,2 92,6 0,6 4,8 495,4 ---
06.02.2021 5,6 7,0 3,6 94,6 2,0 12,3 134,7 ---
07.02.2021 2,5 3,6 0,3 95,4 2,6 6,0 205,7 ---
08.02.2021 -2,6 0,2 -4,4 87,7 0,1 0,0 499,7 ---
09.02.2021 -5,3 -4,0 -7,4 73,7 0,0 0,0 898,5 ---
10.02.2021 -5,9 -0,9 -9,5 69,7 0,8 0,1 2273,6 ---
11.02.2021 -2,3 2,8 -4,5 72,2 1,3 0,0 2406,2 ---
12.02.2021 -3,9 0,3 -7,4 68,6 2,9 0,1 2775,1 ---
13.02.2021 -3,4 1,9 -7,1 62,6 3,2 0,0 2957,0 ---
14.02.2021 -1,6 4,3 -6,3 63,7 2,3 0,0 2820,6 ---
15.02.2021 -0,9 0,7 -2,9 72,1 1,9 0,9 624,5 ---
16.02.2021 4,0 8,9 0,7 87,5 1,3 1,4 1732,5 ---
17.02.2021 7,0 12,5 3,1 84,7 0,8 0,1 1084,9 ---
18.02.2021 4,1 8,2 1,1 91,2 1,1 0,1 1194,8 ---
19.02.2021 6,4 11,9 2,1 83,0 0,9 0,0 1929,6 ---
20.02.2021 8,3 17,1 2,8 83,9 1,1 0,0 2680,2 ---
21.02.2021 8,2 18,8 1,7 79,5 1,8 0,0 3157,5 ---
22.02.2021 7,0 13,5 2,0 82,4 0,9 0,0 2103,9 ---
23.02.2021 11,0 20,4 5,6 76,5 1,2 0,0 2814,1 ---
24.02.2021 10,8 19,3 4,9 81,7 1,1 0,0 2889,2 ---
25.02.2021 10,4 21,6 4,1 73,5 1,3 0,0 3201,7 ---
26.02.2021 6,5 9,1 4,2 85,5 2,6 1,0 540,6 ---
27.02.2021 5,5 13,9 1,8 78,0 2,2 0,0 3231,3 ---
28.02.2021 6,6 13,0 2,6 68,1 1,7 0,0 3692,6 ---
01.03.2021 6,0 14,4 0,3 75,0 2,6 0,0 3733,7 ---
02.03.2021 7,3 16,5 1,1 73,8 1,8 0,0 3719,8 ---
03.03.2021 7,5 15,7 1,6 77,2 1,1 0,0 2938,2 ---
04.03.2021 8,0 14,1 4,3 79,5 2,3 0,3 1938,9 ---
05.03.2021 4,3 7,7 0,2 68,5 1,9 0,0 1547,2 ---
06.03.2021 2,6 9,7 -2,9 62,0 2,4 0,0 4191,4 ---
07.03.2021 3,5 12,5 -2,5 58,6 2,2 0,0 4264,9 ---
08.03.2021 3,6 8,5 -0,6 68,1 2,1 0,0 3003,2 ---
09.03.2021 4,0 7,9 1,0 82,0 1,6 0,5 1375,8 ---
10.03.2021 7,1 11,8 3,0 75,6 1,2 0,0 1679,6 ---
11.03.2021 9,8 15,9 7,3 73,1 2,6 4,5 1993,7 ---
12.03.2021 7,8 12,0 4,5 66,2 2,6 5,0 2915,0 ---
13.03.2021 6,9 10,3 4,6 78,8 2,5 7,3 1713,5 ---
14.03.2021 5,5 10,0 3,6 76,8 1,8 1,2 1962,4 ---
15.03.2021 6,2 10,6 4,0 79,1 2,7 5,4 3099,0 ---
16.03.2021 6,0 8,9 3,4 76,8 1,8 0,8 2393,8 ---
17.03.2021 4,9 7,9 2,5 78,2 2,0 2,1 2060,3 ---
18.03.2021 4,1 9,0 0,2 75,0 2,2 0,6 4069,0 ---
19.03.2021 3,9 9,7 1,2 73,5 1,4 2,1 2693,5 ---
20.03.2021 4,4 9,6 0,2 60,3 1,4 0,0 4126,7 ---
21.03.2021 6,3 9,3 4,0 68,2 3,0 0,0 2533,4 ---
22.03.2021 5,9 7,8 4,3 73,3 2,0 0,0 1484,2 ---
23.03.2021 6,6 10,4 2,7 70,4 1,1 0,0 1818,2 ---
24.03.2021 7,8 16,6 0,2 72,4 1,2 0,0 5059,6 ---
25.03.2021 9,6 18,1 2,9 70,7 1,3 0,0 4008,1 ---
26.03.2021 11,3 18,2 5,0 67,4 1,2 0,0 4093,5 ---
27.03.2021 7,8 10,8 5,4 67,9 2,6 0,9 3383,4 ---
28.03.2021 10,3 17,2 4,1 64,3 1,2 0,0 4945,8 ---
29.03.2021 13,2 24,4 5,1 57,0 1,5 0,0 5453,6 ---
30.03.2021 13,6 24,6 4,8 55,5 1,7 0,0 5620,3 ---
31.03.2021 14,9 25,7 5,3 57,9 1,8 0,0 5480,7 ---
01.04.2021 15,7 24,4 8,6 59,3 3,5 0,0 4821,9 ---
02.04.2021 8,9 14,2 4,9 62,1 2,6 0,0 4209,6 ---
03.04.2021 9,1 14,9 5,7 53,4 1,9 0,0 4442,7 ---
04.04.2021 7,4 12,8 3,3 65,2 2,9 0,0 5698,4 ---
05.04.2021 4,0 7,5 1,3 74,2 2,9 2,7 1544,6 ---
06.04.2021 3,7 7,7 1,0 60,8 4,1 0,1 5210,1 ---
07.04.2021 3,1 5,7 0,8 65,6 3,0 0,4 2497,0 ---
08.04.2021 5,7 12,5 1,0 54,5 1,3 0,0 4285,8 ---
09.04.2021 9,4 18,1 -0,2 56,0 1,5 0,2 5030,5 ---
10.04.2021 9,7 11,3 8,5 86,6 1,1 4,4 1706,9 ---
11.04.2021 7,4 13,3 4,0 89,0 2,4 4,7 1503,5 ---
12.04.2021 5,1 9,1 1,4 75,6 1,6 1,5 4186,6 ---
13.04.2021 4,7 11,4 0,2 70,4 1,9 0,2 4724,7 ---
14.04.2021 5,0 10,6 1,3 66,2 2,1 0,0 4777,4 ---
15.04.2021 5,5 12,1 0,8 64,7 1,7 0,1 3909,2 ---
16.04.2021 6,1 9,6 2,2 63,1 1,7 0,0 2747,4 ---
17.04.2021 8,9 14,1 4,8 55,7 1,8 0,0 5095,8 ---
18.04.2021 8,5 11,2 7,2 73,8 1,2 1,9 1074,2 ---
19.04.2021 10,2 16,0 7,4 77,2 1,1 0,2 2499,2 ---
20.04.2021 11,6 20,1 4,2 66,7 1,7 0,0 6511,9 ---
21.04.2021 12,5 19,9 5,0 63,1 2,5 0,0 5120,8 ---
22.04.2021 10,4 16,0 4,9 54,7 2,3 0,0 6911,6 ---
23.04.2021 10,9 18,7 3,5 54,1 2,1 0,0 7177,5 ---
24.04.2021 12,0 19,3 4,5 52,4 2,4 0,0 7001,6 ---
25.04.2021 11,0 18,8 5,0 50,0 2,0 0,0 7256,7 ---
26.04.2021 10,0 17,2 2,4 48,1 2,1 0,0 7433,9 ---
27.04.2021 11,3 19,2 3,5 45,9 2,0 0,0 7319,5 ---
28.04.2021 12,6 22,0 4,6 58,1 2,3 5,6 6075,6 ---
29.04.2021 11,7 17,6 5,8 68,4 2,1 4,1 4956,2 ---
30.04.2021 8,3 13,1 2,7 67,2 1,2 0,0 3326,8 ---
01.05.2021 10,3 15,0 5,2 61,8 1,8 0,0 4291,3 ---
02.05.2021 9,7 13,6 5,1 56,7 2,5 0,0 5947,5 ---
03.05.2021 9,5 14,9 2,0 58,7 1,6 0,0 4555,7 ---
04.05.2021 10,6 14,3 7,1 63,7 2,3 0,0 1866,9 ---
05.05.2021 7,9 13,2 4,7 69,3 2,5 2,5 4849,9 ---
06.05.2021 7,5 12,7 4,1 79,4 1,1 3,9 2447,1 ---
07.05.2021 8,7 14,1 5,3 64,9 1,8 0,3 5561,2 ---
08.05.2021 11,0 19,5 2,5 63,3 1,2 0,0 5110,2 ---
09.05.2021 19,2 29,2 8,0 55,4 1,7 0,0 6728,7 ---
10.05.2021 16,8 21,5 13,2 73,7 1,4 6,5 1689,4 ---
11.05.2021 13,5 15,4 12,3 91,5 1,0 4,7 1473,2 ---
12.05.2021 14,4 21,0 10,0 73,8 0,8 0,1 3907,3 ---
13.05.2021 13,5 20,3 7,4 71,4 1,5 0,0 5415,4 ---
14.05.2021 13,5 19,4 8,6 68,8 1,2 1,8 4870,4 ---
15.05.2021 12,1 15,3 9,7 74,2 1,3 2,3 3336,3 ---
16.05.2021 12,3 19,5 8,0 77,9 1,4 6,7 4656,3 ---
17.05.2021 12,5 16,5 9,5 77,5 1,5 4,4 4566,3 ---
18.05.2021 11,9 15,7 9,1 77,5 1,6 1,0 4058,1 ---
19.05.2021 12,5 18,0 7,4 72,7 1,7 2,1 6216,9 ---
20.05.2021 13,6 18,4 8,9 68,2 1,1 0,0 4458,6 ---
21.05.2021 14,2 18,3 9,7 61,2 2,0 3,6 4670,1 ---
22.05.2021 12,4 17,6 9,0 67,7 2,2 0,4 4891,1 ---
23.05.2021 12,7 17,8 8,1 64,2 1,5 0,0 4719,2 ---
24.05.2021 12,2 20,9 7,2 73,5 1,6 1,5 5046,7 ---
25.05.2021 10,5 15,2 8,5 75,1 1,8 2,3 2875,7 ---
26.05.2021 10,8 14,8 7,9 83,4 1,3 5,8 3133,0 ---
27.05.2021 11,8 15,8 8,2 76,9 1,7 0,5 3231,9 ---
28.05.2021 14,0 21,2 9,3 67,0 1,5 0,0 4855,7 ---
29.05.2021 15,7 23,1 7,7 59,6 1,7 0,0 6328,7 ---
30.05.2021 16,1 22,7 8,3 59,1 2,0 0,0 7849,0 ---
31.05.2021 16,9 24,7 8,8 57,6 2,1 0,0 8360,1 ---
01.06.2021 18,0 25,6 9,1 55,2 2,5 0,0 8382,6 ---
02.06.2021 20,5 28,9 10,2 52,9 2,1 0,0 8290,0 ---
03.06.2021 20,7 28,6 15,6 72,6 1,3 1,6 4932,4 ---
04.06.2021 20,0 29,8 15,6 81,7 1,6 35,6 5524,0 ---
05.06.2021 18,3 23,3 15,2 88,4 1,5 14,5 3700,7 ---
06.06.2021 16,3 17,6 15,0 86,0 3,1 0,0 3278,8 ---
07.06.2021 17,3 19,4 16,0 86,0 1,8 2,1 2075,8 ---
08.06.2021 20,0 25,2 16,1 74,8 1,9 0,0 5509,7 ---
09.06.2021 21,7 28,0 15,7 66,3 2,4 0,0 8272,4 ---
10.06.2021 22,4 28,8 16,3 61,4 2,2 0,0 7689,7 ---
11.06.2021 22,8 30,2 15,2 62,3 2,0 0,0 6994,5 ---
12.06.2021 21,1 26,5 16,9 66,8 2,2 0,0 5531,0 ---
13.06.2021 19,4 26,0 12,6 58,1 1,4 0,0 8452,1 ---
14.06.2021 20,9 29,7 11,8 58,0 1,6 0,0 8429,3 ---
15.06.2021 23,4 31,2 15,1 60,6 2,0 0,0 7429,9 ---
16.06.2021 25,1 34,2 17,5 61,8 1,8 0,0 7735,2 ---
17.06.2021 26,5 34,8 18,2 61,6 1,5 0,0 7603,8 ---
18.06.2021 27,7 35,7 19,9 60,7 1,3 0,0 6349,5 ---
19.06.2021 27,4 34,2 20,6 59,3 1,1 0,0 7676,5 ---
20.06.2021 25,8 30,5 20,0 60,8 1,6 1,8 6487,1 ---
21.06.2021 21,6 27,9 17,5 69,2 2,3 0,0 6525,9 ---
22.06.2021 16,4 17,8 14,7 86,1 1,7 6,3 2204,1 ---
23.06.2021 19,9 25,5 15,6 75,3 1,9 0,9 6538,7 ---
24.06.2021 17,4 19,5 15,8 87,9 1,3 18,2 1633,7 ---
25.06.2021 18,7 22,8 14,8 73,8 1,4 0,0 3981,8 ---
26.06.2021 20,2 28,5 13,2 67,7 1,3 0,0 7053,7 ---
27.06.2021 21,6 27,5 16,0 73,0 1,7 0,2 4868,6 ---
28.06.2021 23,6 31,3 17,3 67,9 1,2 0,1 6480,6 ---
29.06.2021 20,0 27,2 15,3 77,8 1,1 9,9 3846,3 ---
30.06.2021 16,6 20,9 13,8 82,4 1,0 2,1 3076,6 ---
01.07.2021 16,6 19,4 15,0 73,3 1,5 0,0 2722,4 ---
02.07.2021 19,0 25,1 13,0 68,6 1,2 0,0 5757,4 ---
03.07.2021 21,2 29,3 13,5 67,1 1,4 0,0 6738,2 ---
04.07.2021 19,4 24,6 16,1 81,4 1,2 15,6 4052,5 ---
05.07.2021 18,4 22,9 15,6 86,8 0,8 5,5 3054,2 ---
06.07.2021 18,3 21,5 16,4 83,8 0,8 7,6 2219,4 ---
07.07.2021 19,7 26,7 14,5 71,6 1,0 0,1 6031,1 ---
08.07.2021 18,2 23,6 15,0 80,5 2,1 0,0 3464,5 ---
09.07.2021 18,6 21,6 15,3 79,0 1,6 0,3 2988,5 ---
10.07.2021 19,9 27,9 13,6 74,8 1,4 6,2 6793,1 ---
11.07.2021 19,0 24,3 15,7 80,2 0,9 0,1 3723,6 ---
12.07.2021 19,9 28,1 13,9 79,4 1,4 0,8 4169,4 ---
13.07.2021 18,5 20,6 16,2 91,4 1,1 13,2 1375,4 ---
14.07.2021 17,0 18,5 15,6 89,1 0,8 4,2 1061,0 ---
15.07.2021 19,7 25,9 16,1 81,4 0,9 0,1 4706,6 ---
16.07.2021 19,0 21,7 17,2 85,3 2,5 1,9 4268,6 ---
17.07.2021 20,4 24,8 16,9 78,7 2,2 0,0 5704,0 ---
18.07.2021 22,2 28,1 16,5 70,2 2,0 0,0 7870,2 ---
19.07.2021 20,7 26,6 16,4 72,0 2,1 0,0 7268,4 ---
20.07.2021 19,6 26,2 13,6 68,8 1,7 0,0 7616,9 ---
21.07.2021 20,5 30,1 13,0 62,7 1,6 0,0 7759,3 ---
22.07.2021 21,0 28,5 14,2 64,7 1,9 0,0 7540,0 ---
23.07.2021 22,0 29,5 14,8 63,8 1,9 0,0 7502,2 ---
24.07.2021 19,8 25,2 15,9 79,9 1,6 5,2 3549,0 ---
25.07.2021 21,4 29,3 16,2 75,6 0,9 0,0 6148,3 ---
26.07.2021 21,7 29,0 16,1 72,3 1,2 1,3 6676,1 ---
27.07.2021 19,6 26,8 15,7 78,2 0,9 4,4 4109,2 ---
28.07.2021 19,5 25,8 14,6 76,0 1,1 0,2 4817,7 ---
29.07.2021 19,7 24,3 15,8 63,9 1,4 0,0 5376,7 ---
30.07.2021 21,0 29,1 12,8 62,5 1,2 0,0 7172,5 ---
31.07.2021 19,8 24,8 14,7 59,6 1,6 0,0 6074,5 ---
01.08.2021 19,5 25,2 15,5 63,7 1,5 0,0 5409,2 ---
02.08.2021 17,5 24,3 13,7 78,0 0,9 6,2 4544,9 ---
03.08.2021 16,6 24,0 14,2 86,1 0,8 6,9 3287,6 ---
04.08.2021 17,6 22,4 13,9 80,2 0,8 0,0 3682,6 ---
05.08.2021 19,8 27,0 15,0 73,9 1,0 0,1 5154,4 ---
06.08.2021 18,8 24,4 14,7 77,9 1,1 4,4 4375,8 ---
07.08.2021 17,8 24,4 14,3 81,3 0,8 1,7 2890,0 ---
08.08.2021 17,2 22,6 13,5 74,7 1,1 4,2 4001,5 ---
09.08.2021 17,7 24,0 12,3 70,7 1,1 0,9 4342,2 ---
10.08.2021 19,2 26,2 13,5 72,2 1,0 0,0 4717,4 ---
11.08.2021 21,1 31,0 14,3 73,0 1,2 0,0 5290,7 ---
12.08.2021 22,4 30,2 15,0 70,6 1,4 0,0 5670,5 ---
13.08.2021 23,8 32,2 17,4 70,7 1,7 0,0 5288,2 ---
14.08.2021 23,9 32,9 16,4 65,9 1,6 0,0 6622,6 ---
15.08.2021 23,1 33,2 15,2 62,7 1,7 0,0 6102,1 ---
16.08.2021 18,4 23,5 12,6 70,5 2,1 2,9 3780,8 ---
17.08.2021 15,2 19,8 11,8 74,5 1,5 2,8 3240,2 ---
18.08.2021 18,2 22,4 14,3 75,2 1,3 0,0 2961,6 ---
19.08.2021 19,2 23,0 16,2 77,6 1,4 0,6 3179,3 ---
20.08.2021 20,2 27,2 14,5 72,1 1,1 0,0 4717,6 ---
21.08.2021 21,4 30,6 14,6 70,8 1,6 2,1 5628,6 ---
22.08.2021 19,6 25,1 15,5 79,9 1,0 2,2 3933,6 ---
23.08.2021 18,4 23,9 14,8 81,3 1,4 1,4 3831,8 ---
24.08.2021 17,4 22,7 13,0 70,0 2,0 0,0 4691,8 ---
25.08.2021 18,8 26,6 12,2 63,8 1,4 0,0 6383,4 ---
26.08.2021 17,6 20,5 14,8 69,5 2,1 0,0 4339,2 ---
27.08.2021 15,8 20,2 13,0 78,9 1,8 2,0 3133,1 ---
28.08.2021 16,2 19,2 14,7 81,9 1,0 0,4 2236,7 ---
29.08.2021 15,6 16,9 14,6 88,7 1,9 0,6 1089,8 ---
30.08.2021 18,0 21,8 15,5 78,3 2,0 0,1 2382,8 ---
31.08.2021 17,3 21,9 14,2 76,7 2,0 0,0 3464,9 ---
01.09.2021 17,5 24,0 13,1 72,7 2,2 0,0 4980,5 ---
02.09.2021 17,8 25,4 11,4 71,7 2,1 0,0 5433,7 ---
03.09.2021 19,2 27,9 12,1 69,0 2,2 0,0 5914,2 ---
04.09.2021 19,9 28,9 13,1 66,7 2,5 0,0 5689,8 ---
05.09.2021 20,7 29,4 14,4 66,9 2,1 0,0 5330,2 ---
06.09.2021 21,6 31,6 14,9 64,9 2,0 0,0 5257,8 ---
07.09.2021 20,8 29,0 15,2 65,7 2,2 0,0 4618,6 ---
08.09.2021 20,6 28,6 13,5 67,2 1,9 0,0 5349,7 ---
09.09.2021 21,3 28,6 14,5 71,0 1,0 0,0 3829,0 ---
10.09.2021 20,3 24,5 17,8 83,0 0,9 9,2 2489,4 ---
11.09.2021 19,9 25,7 15,7 79,5 0,9 3,5 3369,3 ---
12.09.2021 18,7 26,6 13,3 72,6 1,4 0,0 4703,7 ---
13.09.2021 18,1 25,0 12,5 73,5 2,3 0,0 4509,3 ---
14.09.2021 19,3 26,3 13,1 77,2 1,7 0,0 3405,3 ---
15.09.2021 19,4 23,4 17,6 90,5 0,8 12,0 1532,4 ---
16.09.2021 17,4 21,0 13,9 78,5 1,5 0,0 3020,1 ---
17.09.2021 16,0 22,3 11,6 80,1 2,0 0,0 2746,9 ---
18.09.2021 17,3 25,8 11,3 75,7 1,6 0,0 4329,1 ---
19.09.2021 16,1 21,8 11,5 74,8 1,5 0,0 4096,5 ---
20.09.2021 14,8 18,0 13,3 69,5 0,9 0,0 1634,8 ---
21.09.2021 15,1 19,8 11,7 59,6 1,3 0,0 4311,7 ---
22.09.2021 14,5 24,3 8,8 71,3 1,8 0,0 4066,3 ---
23.09.2021 16,5 27,2 8,3 69,8 1,2 0,0 4708,7 ---
24.09.2021 17,3 23,9 13,1 74,2 1,0 0,0 2707,9 ---
25.09.2021 17,3 26,3 10,7 75,4 1,3 0,0 4424,0 ---
26.09.2021 16,9 20,4 13,2 89,1 0,5 2,4 1325,2 ---
27.09.2021 16,8 22,2 13,5 85,6 0,9 1,9 1565,8 ---
28.09.2021 14,4 20,3 10,8 77,0 1,2 0,0 3203,2 ---
29.09.2021 13,0 18,1 9,3 76,4 1,4 3,9 2698,1 ---
30.09.2021 12,0 17,7 6,5 71,4 1,0 0,0 3267,6 ---
01.10.2021 13,4 22,4 7,1 69,9 0,8 0,0 4039,1 ---
02.10.2021 16,5 21,9 12,5 69,6 1,1 0,0 2164,6 ---
03.10.2021 19,1 23,2 14,3 65,2 1,8 0,0 853,3 ---
04.10.2021 14,5 20,3 11,5 75,2 0,6 0,0 2091,2 ---
05.10.2021 13,6 18,8 10,4 81,3 1,1 3,9 1836,9 ---
06.10.2021 12,5 15,7 10,1 78,3 1,0 0,7 1831,0 ---
07.10.2021 12,8 19,9 9,5 83,9 1,0 0,4 2303,6 ---
08.10.2021 12,9 19,5 7,8 77,9 2,2 0,1 3464,2 ---
09.10.2021 12,2 19,8 7,5 74,5 1,9 0,0 3816,5 ---
10.10.2021 9,6 19,2 4,4 79,4 2,1 0,0 3520,8 ---
11.10.2021 9,9 16,2 5,0 82,1 2,0 0,0 2032,4 ---
12.10.2021 10,8 14,1 8,3 87,4 1,0 3,7 1252,0 ---
13.10.2021 9,7 15,5 6,9 84,8 1,2 0,5 2161,8 ---
14.10.2021 11,2 16,6 7,6 82,8 0,6 0,0 1516,9 ---
15.10.2021 10,3 16,5 6,5 86,6 1,1 0,0 1623,1 ---
16.10.2021 10,1 17,6 5,8 81,6 1,6 0,0 2984,2 ---